createdAt,value
2022-12-11T00:02:05.095Z,26.87
2022-12-11T00:04:35.289Z,20.37
2022-12-11T00:07:06.571Z,26.90
2022-12-11T00:09:35.491Z,23.13
2022-12-11T00:12:05.281Z,21.53
2022-12-11T00:14:34.189Z,19.87
2022-12-11T00:17:02.958Z,19.40
2022-12-11T00:19:31.630Z,19.57
2022-12-11T00:22:00.511Z,19.20
2022-12-11T00:24:30.684Z,21.27
2022-12-11T00:26:59.146Z,19.70
2022-12-11T00:29:28.930Z,18.73
2022-12-11T00:31:57.812Z,19.27
2022-12-11T00:34:26.789Z,15.10
2022-12-11T00:36:55.195Z,16.20
2022-12-11T00:39:23.650Z,16.60
2022-12-11T00:41:53.465Z,15.43
2022-12-11T00:44:22.072Z,17.27
2022-12-11T00:46:50.925Z,15.90
2022-12-11T00:49:19.355Z,16.50
2022-12-11T00:51:48.277Z,14.10
2022-12-11T00:54:16.713Z,26.73
2022-12-11T00:56:45.503Z,18.00
2022-12-11T00:59:16.094Z,19.93
2022-12-11T01:01:45.540Z,15.80
2022-12-11T01:04:13.979Z,13.40
2022-12-11T01:06:42.328Z,15.60
2022-12-11T01:09:28.279Z,14.93
2022-12-11T01:11:57.139Z,15.53
2022-12-11T01:14:28.539Z,15.30
2022-12-11T01:16:57.597Z,17.63
2022-12-11T01:19:26.145Z,16.63
2022-12-11T01:21:54.669Z,15.57
2022-12-11T01:24:22.991Z,15.17
2022-12-11T01:26:51.638Z,16.20
2022-12-11T01:29:20.155Z,15.17
2022-12-11T01:31:50.291Z,15.23
2022-12-11T01:34:18.915Z,14.93
2022-12-11T01:36:47.433Z,14.60
2022-12-11T01:39:16.666Z,13.77
2022-12-11T01:41:48.730Z,14.77
2022-12-11T01:45:12.696Z,15.33
2022-12-11T01:47:47.243Z,17.10
2022-12-11T01:50:17.312Z,15.10
2022-12-11T01:52:48.158Z,15.03
2022-12-11T01:55:18.631Z,14.83
2022-12-11T01:57:52.429Z,14.90
2022-12-11T02:00:22.031Z,14.27
2022-12-11T02:02:54.167Z,16.07
2022-12-11T02:05:23.300Z,16.73
2022-12-11T02:07:56.691Z,15.50
2022-12-11T02:10:37.366Z,17.67
2022-12-11T02:13:14.501Z,16.10
2022-12-11T02:15:51.443Z,16.27
2022-12-11T02:18:30.699Z,14.33
2022-12-11T02:21:06.788Z,14.87
2022-12-11T02:24:12.748Z,14.87
2022-12-11T02:27:30.794Z,14.40
2022-12-11T02:30:07.601Z,14.50
2022-12-11T02:32:42.174Z,14.43
2022-12-11T02:35:17.801Z,15.07
2022-12-11T02:37:48.505Z,17.20
2022-12-11T02:40:22.911Z,16.30
2022-12-11T02:42:53.046Z,15.47
2022-12-11T02:45:24.839Z,16.53
2022-12-11T02:47:54.992Z,15.93
2022-12-11T02:50:25.774Z,17.00
2022-12-11T02:52:57.678Z,16.10
2022-12-11T02:55:30.211Z,17.77
2022-12-11T02:58:09.494Z,18.00
2022-12-11T03:00:40.306Z,16.93
2022-12-11T03:03:12.508Z,16.07
2022-12-11T03:05:41.728Z,17.27
2022-12-11T03:08:10.489Z,17.60
2022-12-11T03:10:40.094Z,15.80
2022-12-11T03:13:09.091Z,16.53
2022-12-11T03:15:53.746Z,17.77
2022-12-11T03:18:34.564Z,16.80
2022-12-11T03:21:08.316Z,14.80
2022-12-11T03:23:46.262Z,16.63
2022-12-11T03:26:19.191Z,16.97
2022-12-11T03:28:52.688Z,15.10
2022-12-11T03:31:29.771Z,14.70
2022-12-11T03:34:03.655Z,15.87
2022-12-11T03:36:36.448Z,16.63
2022-12-11T03:39:10.492Z,14.67
2022-12-11T03:41:40.456Z,14.33
2022-12-11T03:44:09.560Z,16.33
2022-12-11T03:46:42.912Z,16.60
2022-12-11T03:49:17.944Z,15.63
2022-12-11T03:51:50.053Z,15.30
2022-12-11T03:54:19.373Z,13.57
2022-12-11T03:56:50.397Z,14.20
2022-12-11T03:59:18.961Z,15.60
2022-12-11T04:01:50.159Z,18.70
2022-12-11T04:04:19.021Z,17.60
2022-12-11T04:06:47.478Z,17.83
2022-12-11T04:09:15.828Z,13.70
2022-12-11T04:11:44.161Z,17.93
2022-12-11T04:14:32.157Z,17.37
2022-12-11T04:17:03.266Z,16.83
2022-12-11T04:19:49.163Z,13.80
2022-12-11T04:22:35.773Z,17.53
2022-12-11T04:25:07.264Z,18.50
2022-12-11T04:27:50.477Z,15.47
2022-12-11T04:30:21.311Z,15.40
2022-12-11T04:32:52.224Z,15.27
2022-12-11T04:35:21.523Z,12.90
2022-12-11T04:37:50.199Z,14.67
2022-12-11T04:40:21.421Z,14.57
2022-12-11T04:42:50.916Z,15.20
2022-12-11T04:45:19.847Z,12.67
2022-12-11T04:47:48.383Z,14.43
2022-12-11T04:50:19.486Z,13.97
2022-12-11T04:52:47.847Z,15.87
2022-12-11T04:55:16.719Z,11.27
2022-12-11T04:57:45.365Z,21.87
2022-12-11T05:00:15.453Z,12.23
2022-12-11T05:02:44.312Z,15.67
2022-12-11T05:05:14.005Z,16.47
2022-12-11T05:07:43.971Z,16.47
2022-12-11T05:10:12.346Z,14.80
2022-12-11T05:12:40.734Z,14.27
2022-12-11T05:15:10.518Z,16.03
2022-12-11T05:17:39.202Z,12.67
2022-12-11T05:20:10.262Z,13.13
2022-12-11T05:22:39.020Z,13.83
2022-12-11T05:25:09.817Z,14.47
2022-12-11T05:27:38.470Z,16.97
2022-12-11T05:30:09.387Z,14.90
2022-12-11T05:32:37.826Z,14.97
2022-12-11T05:35:07.169Z,12.17
2022-12-11T05:37:35.588Z,13.77
2022-12-11T05:40:06.241Z,12.37
2022-12-11T05:42:36.869Z,12.90
2022-12-11T05:45:06.100Z,14.07
2022-12-11T05:47:34.475Z,13.20
2022-12-11T05:50:02.867Z,12.73
2022-12-11T05:52:33.542Z,10.57
2022-12-11T05:55:03.237Z,12.67
2022-12-11T05:57:31.572Z,13.83
2022-12-11T06:00:01.289Z,15.07
2022-12-11T06:02:29.797Z,13.23
2022-12-11T06:04:58.173Z,12.57
2022-12-11T06:07:26.589Z,14.50
2022-12-11T06:09:55.143Z,12.60
2022-12-11T06:12:23.500Z,15.00
2022-12-11T06:14:51.753Z,14.60
2022-12-11T06:17:22.362Z,12.93
2022-12-11T06:19:50.753Z,13.77
2022-12-11T06:22:19.029Z,16.10
2022-12-11T06:24:48.075Z,13.70
2022-12-11T06:27:16.395Z,10.63
2022-12-11T06:29:44.674Z,12.33
2022-12-11T06:32:13.001Z,10.50
2022-12-11T06:34:42.696Z,12.80
2022-12-11T06:37:11.770Z,12.17
2022-12-11T06:39:40.069Z,10.90
2022-12-11T06:42:08.401Z,11.00
2022-12-11T06:44:36.655Z,12.00
2022-12-11T06:47:05.669Z,10.53
2022-12-11T06:49:34.055Z,11.10
2022-12-11T06:52:03.719Z,11.47
2022-12-11T06:54:32.183Z,10.83
2022-12-11T06:57:00.495Z,12.93
2022-12-11T06:59:28.819Z,12.50
2022-12-11T07:01:57.710Z,10.87
2022-12-11T07:04:27.714Z,9.33
2022-12-11T07:06:56.051Z,11.47
2022-12-11T07:09:26.205Z,12.10
2022-12-11T07:11:54.807Z,12.50
2022-12-11T07:14:23.139Z,11.43
2022-12-11T07:16:51.931Z,11.63
2022-12-11T07:19:20.488Z,9.53
2022-12-11T07:21:48.807Z,11.70
2022-12-11T07:24:17.117Z,11.73
2022-12-11T07:26:47.313Z,14.03
2022-12-11T07:29:15.599Z,10.60
2022-12-11T07:31:46.544Z,9.70
2022-12-11T07:34:15.332Z,11.93
2022-12-11T07:36:44.678Z,15.43
2022-12-11T07:39:13.493Z,15.50
2022-12-11T07:41:43.885Z,15.97
2022-12-11T07:44:14.700Z,12.90
2022-12-11T07:46:43.026Z,13.43
2022-12-11T07:49:11.376Z,11.77
2022-12-11T07:51:40.531Z,13.17
2022-12-11T07:54:16.841Z,10.17
2022-12-11T07:56:49.883Z,11.33
2022-12-11T07:59:23.044Z,10.77
2022-12-11T08:01:53.766Z,10.73
2022-12-11T08:04:22.181Z,11.77
2022-12-11T08:06:50.722Z,8.80
2022-12-11T08:09:22.637Z,11.23
2022-12-11T08:11:51.720Z,10.70
2022-12-11T08:14:20.741Z,9.80
2022-12-11T08:16:57.538Z,10.67
2022-12-11T08:19:28.229Z,23.10
2022-12-11T08:21:56.712Z,12.37
2022-12-11T08:24:25.066Z,10.60
2022-12-11T08:26:53.363Z,12.50
2022-12-11T08:29:22.905Z,16.77
2022-12-11T08:31:51.544Z,12.13
2022-12-11T08:34:21.452Z,10.60
2022-12-11T08:36:49.746Z,13.40
2022-12-11T08:39:18.051Z,14.23
2022-12-11T08:41:46.469Z,12.67
2022-12-11T08:44:16.988Z,13.73
2022-12-11T08:46:46.521Z,11.93
2022-12-11T08:49:14.884Z,11.93
2022-12-11T08:51:44.684Z,12.13
2022-12-11T08:54:13.515Z,12.57
2022-12-11T08:56:42.056Z,10.07
2022-12-11T08:59:11.606Z,9.47
2022-12-11T09:01:40.912Z,10.67
2022-12-11T09:04:09.300Z,10.33
2022-12-11T09:06:37.670Z,10.60
2022-12-11T09:09:07.520Z,10.63
2022-12-11T09:11:38.258Z,12.47
2022-12-11T09:14:08.380Z,14.47
2022-12-11T09:16:40.244Z,10.43
2022-12-11T09:19:13.443Z,11.43
2022-12-11T09:21:43.933Z,9.93
2022-12-11T09:24:15.127Z,11.83
2022-12-11T09:26:43.937Z,11.83
2022-12-11T09:29:12.808Z,12.87
2022-12-11T09:31:41.931Z,9.43
2022-12-11T09:34:14.207Z,11.03
2022-12-11T09:36:44.224Z,16.10
2022-12-11T09:39:16.158Z,16.13
2022-12-11T09:41:55.356Z,15.83
2022-12-11T09:44:35.863Z,13.57
2022-12-11T09:47:04.601Z,14.23
2022-12-11T09:49:40.316Z,13.53
2022-12-11T09:52:15.664Z,13.10
2022-12-11T09:54:50.753Z,15.60
2022-12-11T09:57:39.871Z,13.90
2022-12-11T10:00:29.696Z,11.77
2022-12-11T10:03:22.150Z,9.33
2022-12-11T10:06:01.155Z,12.57
2022-12-11T10:08:41.384Z,13.70
2022-12-11T10:11:56.874Z,13.80
2022-12-11T10:14:41.142Z,12.30
2022-12-11T10:17:17.202Z,6.13
2022-12-11T10:19:46.475Z,15.00
2022-12-11T10:22:23.250Z,19.33
2022-12-11T10:25:10.645Z,16.10
2022-12-11T10:27:44.776Z,13.33
2022-12-11T10:30:19.445Z,11.17
2022-12-11T10:33:07.416Z,11.83
2022-12-11T10:35:42.462Z,15.10
2022-12-11T10:38:17.480Z,12.03
2022-12-11T10:40:52.513Z,12.67
2022-12-11T10:43:34.570Z,12.93
2022-12-11T10:46:03.663Z,14.90
2022-12-11T10:48:32.009Z,13.00
2022-12-11T10:51:05.601Z,10.73
2022-12-11T10:53:39.557Z,15.47
2022-12-11T10:56:09.006Z,10.33
2022-12-11T10:58:50.465Z,14.27
2022-12-11T11:01:24.194Z,13.20
2022-12-11T11:03:59.970Z,11.20
2022-12-11T11:06:31.093Z,13.83
2022-12-11T11:09:03.286Z,12.17
2022-12-11T11:11:35.274Z,12.13
2022-12-11T11:14:17.527Z,12.40
2022-12-11T11:16:48.038Z,13.50
2022-12-11T11:19:22.711Z,10.37
2022-12-11T11:21:54.797Z,13.57
2022-12-11T11:24:31.450Z,11.20
2022-12-11T11:27:15.476Z,11.23
2022-12-11T11:29:51.562Z,13.17
2022-12-11T11:32:28.064Z,11.00
2022-12-11T11:35:18.374Z,13.00
2022-12-11T11:37:56.245Z,19.57
2022-12-11T11:40:30.645Z,15.90
2022-12-11T11:43:12.435Z,11.80
2022-12-11T11:45:51.314Z,13.87
2022-12-11T11:48:35.343Z,12.70
2022-12-11T11:51:16.277Z,12.67
2022-12-11T11:53:53.492Z,12.00
2022-12-11T11:56:27.180Z,14.40
2022-12-11T11:59:10.282Z,11.70
2022-12-11T12:01:43.160Z,12.63
2022-12-11T12:04:14.258Z,12.10
2022-12-11T12:07:10.707Z,10.83
2022-12-11T12:09:49.172Z,11.93
2022-12-11T12:12:33.827Z,11.33
2022-12-11T12:15:25.495Z,12.37
2022-12-11T12:17:58.134Z,10.40
2022-12-11T12:20:38.980Z,11.20
2022-12-11T12:23:37.858Z,13.27
2022-12-11T12:26:17.397Z,10.17
2022-12-11T12:28:53.963Z,12.13
2022-12-11T12:31:44.984Z,10.97
2022-12-11T12:34:30.953Z,12.20
2022-12-11T12:37:09.092Z,12.33
2022-12-11T12:39:50.510Z,12.30
2022-12-11T12:42:31.958Z,11.10
2022-12-11T12:45:07.375Z,10.80
2022-12-11T12:47:37.683Z,8.93
2022-12-11T12:50:14.014Z,12.10
2022-12-11T12:52:43.859Z,11.30
2022-12-11T12:55:27.314Z,11.07
2022-12-11T12:57:58.442Z,13.30
2022-12-11T13:00:35.104Z,11.43
2022-12-11T13:03:14.450Z,9.83
2022-12-11T13:05:57.536Z,8.97
2022-12-11T13:08:27.702Z,9.93
2022-12-11T13:11:03.576Z,9.50
2022-12-11T13:13:39.252Z,11.40
2022-12-11T13:16:24.776Z,12.93
2022-12-11T13:18:55.717Z,9.90
2022-12-11T13:21:32.912Z,9.87
2022-12-11T13:24:25.708Z,11.87
2022-12-11T13:26:54.338Z,9.67
2022-12-11T13:29:36.539Z,10.53
2022-12-11T13:32:24.069Z,9.87
2022-12-11T13:34:58.834Z,9.93
2022-12-11T13:37:33.077Z,7.80
2022-12-11T13:40:02.469Z,9.87
2022-12-11T13:42:35.798Z,9.43
2022-12-11T13:45:07.317Z,9.10
2022-12-11T13:47:37.844Z,10.97
2022-12-11T13:50:25.134Z,8.87
2022-12-11T13:52:59.594Z,8.60
2022-12-11T13:55:31.707Z,9.47
2022-12-11T13:58:00.553Z,8.70
2022-12-11T14:00:32.740Z,11.10
2022-12-11T14:03:07.392Z,10.60
2022-12-11T14:05:36.552Z,8.90
2022-12-11T14:08:11.190Z,19.80
2022-12-11T14:10:41.434Z,10.47
2022-12-11T14:13:19.326Z,13.13
2022-12-11T14:15:48.363Z,11.53
2022-12-11T14:18:22.391Z,12.87
2022-12-11T14:20:56.351Z,9.43
2022-12-11T14:23:29.070Z,9.40
2022-12-11T14:26:00.500Z,7.50
2022-12-11T14:28:31.333Z,10.40
2022-12-11T14:31:01.992Z,8.67
2022-12-11T14:33:34.232Z,9.80
2022-12-11T14:36:03.388Z,23.83
2022-12-11T14:38:37.805Z,13.87
2022-12-11T14:41:13.727Z,14.27
2022-12-11T14:43:48.430Z,11.33
2022-12-11T14:46:23.418Z,10.23
2022-12-11T14:49:00.957Z,11.47
2022-12-11T14:51:35.808Z,8.87
2022-12-11T14:54:07.397Z,10.67
2022-12-11T14:56:36.038Z,9.13
2022-12-11T14:59:09.088Z,10.23
2022-12-11T15:01:39.304Z,9.57
2022-12-11T15:04:24.534Z,10.87
2022-12-11T15:06:53.309Z,10.90
2022-12-11T15:09:28.847Z,10.93
2022-12-11T15:12:00.617Z,10.83
2022-12-11T15:14:29.767Z,9.27
2022-12-11T15:16:59.202Z,11.07
2022-12-11T15:19:34.125Z,11.10
2022-12-11T15:22:08.237Z,10.10
2022-12-11T15:24:42.088Z,12.03
2022-12-11T15:27:27.424Z,9.70
2022-12-11T15:29:56.832Z,11.07
2022-12-11T15:32:25.696Z,9.77
2022-12-11T15:34:55.991Z,11.57
2022-12-11T15:37:26.968Z,10.70
2022-12-11T15:40:00.173Z,12.70
2022-12-11T15:42:32.411Z,12.77
2022-12-11T15:45:01.366Z,15.47
2022-12-11T15:47:32.154Z,15.53
2022-12-11T15:50:03.523Z,16.33
2022-12-11T15:52:34.446Z,16.67
2022-12-11T15:55:04.731Z,14.77
2022-12-11T15:57:33.102Z,16.40
2022-12-11T16:00:01.924Z,14.63
2022-12-11T16:02:30.203Z,13.63
2022-12-11T16:04:58.467Z,13.13
2022-12-11T16:07:28.255Z,13.57
2022-12-11T16:09:56.772Z,17.63
2022-12-11T16:12:26.572Z,10.27
2022-12-11T16:14:54.886Z,12.83
2022-12-11T16:17:24.324Z,12.13
2022-12-11T16:19:55.473Z,15.10
2022-12-11T16:22:23.882Z,15.20
2022-12-11T16:24:55.616Z,13.63
2022-12-11T16:27:26.049Z,12.40
2022-12-11T16:29:56.646Z,13.23
2022-12-11T16:32:24.938Z,10.37
2022-12-11T16:34:55.371Z,11.97
2022-12-11T16:37:23.699Z,12.63
2022-12-11T16:39:52.010Z,12.93
2022-12-11T16:42:21.278Z,11.17
2022-12-11T16:44:51.456Z,12.03
2022-12-11T16:47:19.854Z,13.53
2022-12-11T16:49:48.200Z,12.57
2022-12-11T16:52:21.941Z,14.27
2022-12-11T16:54:50.779Z,13.00
2022-12-11T16:57:19.246Z,11.90
2022-12-11T16:59:50.183Z,13.77
2022-12-11T17:02:19.317Z,15.73
2022-12-11T17:04:53.728Z,15.53
2022-12-11T17:07:22.368Z,11.80
2022-12-11T17:09:50.900Z,12.80
2022-12-11T17:12:23.150Z,13.60
2022-12-11T17:14:53.152Z,14.57
2022-12-11T17:17:22.784Z,11.57
2022-12-11T17:19:52.180Z,11.53
2022-12-11T17:22:20.860Z,11.23
2022-12-11T17:24:49.592Z,13.43
2022-12-11T17:27:18.348Z,10.40
2022-12-11T17:29:49.464Z,13.67
2022-12-11T17:32:19.942Z,14.90
2022-12-11T17:34:50.462Z,14.60
2022-12-11T17:37:19.253Z,11.63
2022-12-11T17:39:52.693Z,14.13
2022-12-11T17:42:21.044Z,13.20
2022-12-11T17:44:53.709Z,14.13
2022-12-11T17:47:28.404Z,13.23
2022-12-11T17:49:57.041Z,13.57
2022-12-11T17:52:30.906Z,17.10
2022-12-11T17:55:03.169Z,14.60
2022-12-11T17:57:32.024Z,16.80
2022-12-11T18:00:01.000Z,16.47
2022-12-11T18:02:35.337Z,14.80
2022-12-11T18:05:05.355Z,14.07
2022-12-11T18:07:33.679Z,13.33
2022-12-11T18:10:02.120Z,12.60
2022-12-11T18:12:32.833Z,16.77
2022-12-11T18:15:03.137Z,15.00
2022-12-11T18:17:32.857Z,13.97
2022-12-11T18:20:03.816Z,15.07
2022-12-11T18:22:32.446Z,15.17
2022-12-11T18:25:03.904Z,17.10
2022-12-11T18:27:38.496Z,17.30
2022-12-11T18:30:08.465Z,15.80
2022-12-11T18:32:38.165Z,11.57
2022-12-11T18:35:07.890Z,15.20
2022-12-11T18:37:36.953Z,13.73
2022-12-11T18:40:10.388Z,11.87
2022-12-11T18:42:38.975Z,12.80
2022-12-11T18:45:09.478Z,16.00
2022-12-11T18:47:39.592Z,13.13
2022-12-11T18:50:09.343Z,10.77
2022-12-11T18:52:37.875Z,11.80
2022-12-11T18:55:07.796Z,12.40
2022-12-11T18:57:37.234Z,11.90
2022-12-11T19:00:07.652Z,17.97
2022-12-11T19:02:39.371Z,17.17
2022-12-11T19:05:11.072Z,21.53
2022-12-11T19:07:40.130Z,23.63
2022-12-11T19:10:10.083Z,17.03
2022-12-11T19:12:39.636Z,17.40
2022-12-11T19:15:10.813Z,14.70
2022-12-11T19:17:42.899Z,12.47
2022-12-11T19:20:40.544Z,11.33
2022-12-11T19:23:02.521Z,14.73
2022-12-11T19:25:31.099Z,11.70
2022-12-11T19:28:01.561Z,11.23
2022-12-11T19:30:31.056Z,11.40
2022-12-11T19:33:01.279Z,12.30
2022-12-11T19:35:30.565Z,15.03
2022-12-11T19:37:59.515Z,10.13
2022-12-11T19:40:28.475Z,16.63
2022-12-11T19:42:57.133Z,11.23
2022-12-11T19:45:27.040Z,11.77
2022-12-11T19:47:55.400Z,9.57
2022-12-11T19:50:25.279Z,14.27
2022-12-11T19:52:55.689Z,15.67
2022-12-11T19:55:30.506Z,14.57
2022-12-11T19:57:59.093Z,12.23
2022-12-11T20:00:28.182Z,9.80
2022-12-11T20:02:56.772Z,9.90
2022-12-11T20:05:26.864Z,11.83
2022-12-11T20:07:55.214Z,15.57
2022-12-11T20:10:23.785Z,14.20
2022-12-11T20:12:52.607Z,13.90
2022-12-11T20:15:21.187Z,10.87
2022-12-11T20:17:54.355Z,12.57
2022-12-11T20:20:23.359Z,14.00
2022-12-11T20:22:54.894Z,18.07
2022-12-11T20:25:23.992Z,17.10
2022-12-11T20:27:52.638Z,14.13
2022-12-11T20:30:21.404Z,15.43
2022-12-11T20:32:49.973Z,15.43
2022-12-11T20:35:18.682Z,16.07
2022-12-11T20:37:48.470Z,12.90
2022-12-11T20:40:18.497Z,16.47
2022-12-11T20:42:47.313Z,14.77
2022-12-11T20:45:15.877Z,13.17
2022-12-11T20:47:44.443Z,14.33
2022-12-11T20:50:12.930Z,15.63
2022-12-11T20:52:41.785Z,14.37
2022-12-11T20:55:14.945Z,14.93
2022-12-11T20:57:45.427Z,11.80
2022-12-11T21:00:15.776Z,18.20
2022-12-11T21:02:45.484Z,11.97
2022-12-11T21:05:15.355Z,11.03
2022-12-11T21:07:44.358Z,13.80
2022-12-11T21:10:14.672Z,13.10
2022-12-11T21:12:44.678Z,13.10
2022-12-11T21:15:14.382Z,13.33
2022-12-11T21:17:43.110Z,14.00
2022-12-11T21:20:13.100Z,15.47
2022-12-11T21:22:41.636Z,19.87
2022-12-11T21:25:11.444Z,11.03
2022-12-11T21:27:40.283Z,10.90
2022-12-11T21:30:14.986Z,12.00
2022-12-11T21:32:44.841Z,14.73
2022-12-11T21:35:13.939Z,13.77
2022-12-11T21:37:43.717Z,13.63
2022-12-11T21:40:13.484Z,13.87
2022-12-11T21:42:42.704Z,10.13
2022-12-11T21:45:52.074Z,11.70
2022-12-11T21:48:02.146Z,17.37
2022-12-11T21:50:30.856Z,14.80
2022-12-11T21:52:59.672Z,17.23
2022-12-11T21:55:28.224Z,16.23
2022-12-11T21:57:58.612Z,16.93
2022-12-11T22:00:29.126Z,17.57
2022-12-11T22:02:58.436Z,22.67
2022-12-11T22:05:27.333Z,19.37
2022-12-11T22:07:56.028Z,15.73
2022-12-11T22:10:24.919Z,17.90
2022-12-11T22:12:53.783Z,16.67
2022-12-11T22:15:22.370Z,18.33
2022-12-11T22:17:52.283Z,15.37
2022-12-11T22:20:21.086Z,15.57
2022-12-11T22:22:49.807Z,17.83
2022-12-11T22:25:19.617Z,17.60
2022-12-11T22:27:48.017Z,18.63
2022-12-11T22:30:18.645Z,15.83
2022-12-11T22:32:49.167Z,18.57
2022-12-11T22:35:21.840Z,21.57
2022-12-11T22:37:54.013Z,22.50
2022-12-11T22:40:22.443Z,17.63
2022-12-11T22:42:50.883Z,15.73
2022-12-11T22:45:19.899Z,17.53
2022-12-11T22:47:48.423Z,18.73
2022-12-11T22:50:19.565Z,17.53
2022-12-11T22:52:48.054Z,16.47
2022-12-11T22:55:17.672Z,22.00
2022-12-11T22:57:46.157Z,17.70
2022-12-11T23:00:18.808Z,17.33
2022-12-11T23:02:47.437Z,18.97
2022-12-11T23:05:16.598Z,21.60
2022-12-11T23:07:46.936Z,16.63
2022-12-11T23:10:16.620Z,21.87
2022-12-11T23:12:45.053Z,19.80
2022-12-11T23:15:13.722Z,20.33
2022-12-11T23:17:42.355Z,16.47
2022-12-11T23:20:14.086Z,19.20
2022-12-11T23:22:45.318Z,15.77
2022-12-11T23:25:15.107Z,16.10
2022-12-11T23:27:43.918Z,17.80
2022-12-11T23:30:15.315Z,17.00
2022-12-11T23:32:43.698Z,16.50
2022-12-11T23:35:13.943Z,18.63
2022-12-11T23:37:42.911Z,18.13
2022-12-11T23:40:14.655Z,16.43
2022-12-11T23:42:43.537Z,16.53
2022-12-11T23:45:14.307Z,19.87
2022-12-11T23:47:44.125Z,18.10
2022-12-11T23:50:13.207Z,19.73
2022-12-11T23:52:42.576Z,15.77
2022-12-11T23:55:13.786Z,14.03
2022-12-11T23:57:43.154Z,19.53
